Main page
METAR-TAF:

METAR-TAF

Airports :

Le Touquet, France

Le Touquet – Côte d'Opale Airport

latitude: 50-30-53N, longitude: 001-37-39E, elevation: 6 m

Current weather observation

The report was made 42 minutes ago, at 08:30 UTC
Wind 6 kt from the Southwest, varying between South and West
Temperature 12°C
Humidity 76%
Pressure 1025 hPa
Visibility 10 km or more
Overcast at a height of 2500 ft

METAR: LFAT 290830Z AUTO 22006KT 180V260 9999 OVC025 12/08 Q1025 NOSIG

Time: 11:12 (09:12 UTC)

Forecast

The report was made 1 hour and 12 minutes ago, at 08:00 UTC
Forecast valid from 29 at 09 UTC to 29 at 18 UTC
Wind 8 kt from the Southwest
Visibility 10 km or more
Overcast at a height of 3000 ft

TAF: LFAT 290800Z 2909/2918 23008KT 9999 OVC030

Weather observations and forecasts of more than 4000 airports (METAR and TAF reports).

The available stations are represented by yellow and red dots on the map.

Hover mouse over dot to see the name of the station.

Then click to see weather observations and forecasts.

To change the map : click on the green buttons with a black cross to zoom in, on the green button with a dash to zoom out, or on the green arrows for adjacent maps.


METAR-TAF: